Arlington, VA (22201)

3:04 PM EDT on August 31, 2015 (GMT -0400)
Ashton Heights | | Change Station
CLOSE
Current Station
Personal Weather Station
Location: Arlington, VA
Elevation: 280 ft
Nearby Weather Stations

Elev 280 ft 38.88 °N, 77.10 °W | Updated 4 minutes ago

Overcast
Overcast
87.4 °F
Feels Like 100 °F
N
3.1
Wind Variable Wind from West
Gusts 4.5 mph

Today
High -- | Low -- °F
--% Chance of Precip.
Yesterday
High -- | Low -- °F
Precip. -- in
6:36 AM 7:40 PM
Waning Gibbous, 94% visible
Pressure 30.07 in
Visibility 10.0 miles
Clouds Few 6000 ft
Scattered Clouds 15000 ft
Mostly Cloudy 25000 ft
Heat Index 100 °F
Dew Point 78 °F
Humidity 73%
Rainfall 0.00 in
Snow Depth Not available.
UV 4 out of 12
Pollen 10.30 out of 12
Air Quality Not available.
Flu Activity Not available.
METAR KDCA 311852Z 20008KT 170V240 10SM FEW060 SCT150 BKN250 30/19 A3007 RMK AO2 SLP181 T03000189
Pressure 30.07 in
Visibility 10.0 miles
Clouds Few 6000 ft
Scattered Clouds 15000 ft
Mostly Cloudy 25000 ft
Heat Index 100 °F
Dew Point 78 °F
Humidity 73%
Rainfall 0.00 in
Snow Depth Not available.
UV 4 out of 12
Pollen 10.30 out of 12
Air Quality Not available.
Flu Activity Not available.
METAR KDCA 311852Z 20008KT 170V240 10SM FEW060 SCT150 BKN250 30/19 A3007 RMK AO2 SLP181 T03000189

10-Day Weather Forecast

×

Almanac

Astronomy

Aug. 31, 2015 Rise Set
Actual Time
Civil Twilight
Nautical Twilight
Astronomical Twilight
Moon
Length of Visible Light
Length of Day
Tomorrow will be .
, % of the Moon is Illuminated

Today's Extremes

State Highs State Lows

Community

WunderPhotos

Upload Photos

1,851,340 photos uploaded!

WunderBlogs® & News

Nearby

Air Quality

  Air Quality AQ Index Pollutant
Not available.

Snow Depth

Station Depth Elevation

Earthquake Activity

City Distance Mag. Time & Date
Minimum magnitude displayed is 2.5.

Coastal Water Temperatures

Place Temperature

Stations

Nearby Weather Stations

Station Location Temp. Windchill Dew Point Humidity Wind Precip. Elev Updated Type